createdAt,value
2019-04-30T00:01:48.527Z,102023.13
2019-04-30T00:04:40.417Z,102023.52
2019-04-30T00:07:10.149Z,102020.11
2019-04-30T00:09:40.642Z,102027.29
2019-04-30T00:12:10.203Z,102019.33
2019-04-30T00:14:41.362Z,102019.59
2019-04-30T00:17:10.738Z,102019.05
2019-04-30T00:19:41.448Z,102022.27
2019-04-30T00:22:10.772Z,102012.86
2019-04-30T00:24:44.268Z,102012.86
2019-04-30T00:27:10.929Z,102016.46
2019-04-30T00:29:40.190Z,102012.42
2019-04-30T00:32:09.391Z,102012.39
2019-04-30T00:34:39.480Z,102006.41
2019-04-30T00:37:13.965Z,102011.11
2019-04-30T00:39:39.687Z,102008.02
2019-04-30T00:42:09.110Z,102007.36
2019-04-30T00:44:38.315Z,102006.67
2019-04-30T00:47:08.456Z,101999.09
2019-04-30T00:49:37.653Z,102000.48
2019-04-30T00:52:06.835Z,101997.91
2019-04-30T00:54:36.016Z,101993.79
2019-04-30T00:57:07.653Z,101994.66
2019-04-30T00:59:39.865Z,102001.83
2019-04-30T01:02:30.800Z,101992.30
2019-04-30T01:04:58.334Z,101993.88
2019-04-30T01:07:28.193Z,101991.11
2019-04-30T01:09:57.374Z,101988.20
2019-04-30T01:12:29.649Z,101989.89
2019-04-30T01:14:59.038Z,101991.23
2019-04-30T01:17:29.952Z,101993.20
2019-04-30T01:19:59.287Z,101985.72
2019-04-30T01:22:32.783Z,101991.58
2019-04-30T01:25:01.351Z,101990.94
2019-04-30T01:27:30.723Z,101987.15
2019-04-30T01:30:00.096Z,101991.79
2019-04-30T01:32:29.400Z,101989.02
2019-04-30T01:34:58.959Z,101985.66
2019-04-30T01:37:29.624Z,101983.88
2019-04-30T01:40:03.083Z,101981.18
2019-04-30T01:42:30.204Z,101983.34
2019-04-30T01:44:59.382Z,101981.66
2019-04-30T01:47:30.798Z,101979.81
2019-04-30T01:50:04.895Z,101983.80
2019-04-30T01:52:51.058Z,101982.88
2019-04-30T01:55:23.404Z,101978.66
2019-04-30T01:58:05.918Z,101978.00
2019-04-30T02:00:49.320Z,101981.07
2019-04-30T02:03:19.354Z,101982.19
2019-04-30T02:05:49.844Z,101976.70
2019-04-30T02:08:19.589Z,101979.19
2019-04-30T02:10:51.216Z,101970.56
2019-04-30T02:13:19.734Z,101972.84
2019-04-30T02:15:49.309Z,101978.00
2019-04-30T02:18:19.693Z,101977.22
2019-04-30T02:20:49.733Z,101979.52
2019-04-30T02:23:19.722Z,101974.27
2019-04-30T02:25:49.118Z,101975.76
2019-04-30T02:28:19.075Z,101977.91
2019-04-30T02:30:50.381Z,101974.42
2019-04-30T02:33:21.021Z,101977.27
2019-04-30T02:36:03.259Z,101978.52
2019-04-30T02:38:33.711Z,101977.46
2019-04-30T02:41:03.762Z,101973.82
2019-04-30T02:43:33.870Z,101976.95
2019-04-30T02:46:05.017Z,101978.49
2019-04-30T02:48:36.339Z,101980.92
2019-04-30T02:51:06.459Z,101974.97
2019-04-30T02:54:09.911Z,101974.79
2019-04-30T02:56:40.238Z,101975.06
2019-04-30T02:59:11.284Z,101965.19
2019-04-30T03:01:40.690Z,101961.80
2019-04-30T03:04:10.245Z,101964.41
2019-04-30T03:06:40.247Z,101964.80
2019-04-30T03:09:10.601Z,101963.89
2019-04-30T03:11:41.039Z,101966.17
2019-04-30T03:14:10.916Z,101965.72
2019-04-30T03:16:52.530Z,101962.28
2019-04-30T03:19:42.604Z,101956.38
2019-04-30T03:22:15.499Z,101960.52
2019-04-30T03:24:44.787Z,101955.37
2019-04-30T03:27:13.968Z,101959.95
2019-04-30T03:29:43.134Z,101954.67
2019-04-30T03:32:13.765Z,101954.00
2019-04-30T03:34:43.245Z,101948.20
2019-04-30T03:37:12.406Z,101950.36
2019-04-30T03:39:41.556Z,101943.78
2019-04-30T03:42:12.323Z,101942.72
2019-04-30T03:44:41.535Z,101952.30
2019-04-30T03:47:11.186Z,101946.23
2019-04-30T03:49:40.547Z,101942.08
2019-04-30T03:52:13.106Z,101950.15
2019-04-30T03:54:41.080Z,101946.00
2019-04-30T03:57:11.374Z,101942.59
2019-04-30T03:59:40.675Z,101950.48
2019-04-30T04:02:20.836Z,101945.20
2019-04-30T04:04:54.298Z,101945.54
2019-04-30T04:07:52.929Z,101949.98
2019-04-30T04:10:33.279Z,101948.75
2019-04-30T04:13:02.429Z,101947.84
2019-04-30T04:15:33.077Z,101955.09
2019-04-30T04:18:02.312Z,101955.75
2019-04-30T04:20:34.164Z,101956.27
2019-04-30T04:23:05.186Z,101952.09
2019-04-30T04:25:34.481Z,101956.97
2019-04-30T04:28:03.777Z,101968.36
2019-04-30T04:30:32.935Z,101958.60
2019-04-30T04:33:02.549Z,101957.36
2019-04-30T04:35:31.703Z,101958.09
2019-04-30T04:38:00.968Z,101964.05
2019-04-30T04:40:30.462Z,101959.17
2019-04-30T04:43:00.245Z,101952.77
2019-04-30T04:45:30.610Z,101957.64
2019-04-30T04:48:00.352Z,101962.80
2019-04-30T04:50:30.189Z,101962.06
2019-04-30T04:52:59.815Z,101968.30
2019-04-30T04:55:30.174Z,101961.94
2019-04-30T04:57:59.914Z,101959.00
2019-04-30T05:00:29.539Z,101963.25
2019-04-30T05:03:04.426Z,101966.14
2019-04-30T05:05:33.665Z,101971.70
2019-04-30T05:08:02.831Z,101968.69
2019-04-30T05:10:32.013Z,101973.52
2019-04-30T05:13:01.757Z,101972.91
2019-04-30T05:15:31.013Z,101971.14
2019-04-30T05:18:00.172Z,101969.14
2019-04-30T05:20:29.382Z,101968.14
2019-04-30T05:22:58.643Z,101969.56
2019-04-30T05:25:29.394Z,101974.91
2019-04-30T05:28:00.148Z,101972.14
2019-04-30T05:30:29.647Z,101974.88
2019-04-30T05:32:58.954Z,101982.71
2019-04-30T05:35:28.422Z,101982.03
2019-04-30T05:37:59.330Z,101991.56
2019-04-30T05:40:28.796Z,101982.75
2019-04-30T05:42:58.125Z,101986.09
2019-04-30T05:45:28.947Z,101996.06
2019-04-30T05:47:58.751Z,102000.52
2019-04-30T05:50:29.747Z,101993.27
2019-04-30T05:52:59.234Z,101996.86
2019-04-30T05:55:29.434Z,101993.64
2019-04-30T05:58:01.397Z,101993.06
2019-04-30T06:00:30.641Z,101993.03
2019-04-30T06:02:59.930Z,101987.54
2019-04-30T06:05:30.462Z,101991.88
2019-04-30T06:07:59.715Z,101998.88
2019-04-30T06:10:43.284Z,101998.31
2019-04-30T06:13:25.488Z,101998.45
2019-04-30T06:16:00.700Z,101995.55
2019-04-30T06:18:29.884Z,101998.11
2019-04-30T06:20:59.543Z,102001.49
2019-04-30T06:23:29.419Z,102006.47
2019-04-30T06:26:06.899Z,102004.05
2019-04-30T06:28:29.884Z,102006.80
2019-04-30T06:30:59.188Z,102004.84
2019-04-30T06:33:29.108Z,102002.87
2019-04-30T06:35:59.041Z,102010.27
2019-04-30T06:38:29.196Z,102007.72
2019-04-30T06:41:00.681Z,102011.73
2019-04-30T06:43:30.117Z,102015.59
2019-04-30T06:45:59.290Z,102012.33
2019-04-30T06:48:30.136Z,102010.20
2019-04-30T06:50:59.682Z,102011.05
2019-04-30T06:53:29.336Z,102006.84
2019-04-30T06:55:58.996Z,102006.64
2019-04-30T06:58:29.178Z,102013.54
2019-04-30T07:00:59.589Z,102012.81
2019-04-30T07:03:29.154Z,102012.86
2019-04-30T07:05:58.687Z,102009.97
2019-04-30T07:08:59.694Z,102002.00
2019-04-30T07:11:32.875Z,101993.60
2019-04-30T07:14:02.065Z,101997.37
2019-04-30T07:16:33.369Z,101996.20
2019-04-30T07:19:02.818Z,101999.27
2019-04-30T07:21:36.436Z,102003.21
2019-04-30T07:24:02.954Z,101994.71
2019-04-30T07:26:33.359Z,101995.25
2019-04-30T07:29:03.714Z,101994.38
2019-04-30T07:31:32.870Z,102003.67
2019-04-30T07:34:02.288Z,102004.38
2019-04-30T07:36:45.942Z,102007.63
2019-04-30T07:39:02.398Z,102015.70
2019-04-30T07:41:31.617Z,102024.00
2019-04-30T07:44:01.073Z,102016.91
2019-04-30T07:46:35.197Z,102024.05
2019-04-30T07:49:02.001Z,102025.23
2019-04-30T07:51:37.127Z,102019.96
2019-04-30T07:54:02.150Z,102027.69
2019-04-30T07:56:37.269Z,102018.20
2019-04-30T07:59:02.845Z,102029.34
2019-04-30T08:01:32.249Z,102028.92
2019-04-30T08:04:20.411Z,102027.61
2019-04-30T08:06:49.997Z,102025.27
2019-04-30T08:09:22.095Z,102023.80
2019-04-30T08:11:50.171Z,102023.94
2019-04-30T08:14:21.108Z,102021.13
2019-04-30T08:16:51.095Z,102020.91
2019-04-30T08:19:20.408Z,102027.82
2019-04-30T08:21:49.554Z,102029.02
2019-04-30T08:24:19.350Z,102028.47
2019-04-30T08:26:49.378Z,102027.23
2019-04-30T08:29:19.496Z,102032.82
2019-04-30T08:31:49.038Z,102030.84
2019-04-30T08:34:20.123Z,102030.71
2019-04-30T08:36:49.330Z,102031.48
2019-04-30T08:39:19.756Z,102036.45
2019-04-30T08:41:49.360Z,102037.01
2019-04-30T08:44:20.813Z,102037.45
2019-04-30T08:46:49.534Z,102038.23
2019-04-30T08:49:19.452Z,102034.19
2019-04-30T08:51:50.786Z,102037.80
2019-04-30T08:54:20.536Z,102042.89
2019-04-30T08:56:50.357Z,102039.85
2019-04-30T08:59:19.747Z,102039.39
2019-04-30T09:01:48.908Z,102047.19
2019-04-30T09:04:20.001Z,102044.77
2019-04-30T09:06:49.608Z,102036.73
2019-04-30T09:09:20.790Z,102039.86
2019-04-30T09:11:55.414Z,102047.64
2019-04-30T09:14:21.052Z,102050.70
2019-04-30T09:16:51.316Z,102049.30
2019-04-30T09:19:21.339Z,102052.76
2019-04-30T09:21:50.915Z,102045.09
2019-04-30T09:24:20.092Z,102042.36
2019-04-30T09:26:49.430Z,102043.34
2019-04-30T09:29:19.208Z,102042.66
2019-04-30T09:31:49.348Z,102046.45
2019-04-30T09:34:21.122Z,102050.86
2019-04-30T09:36:49.776Z,102037.99
2019-04-30T09:39:19.957Z,102051.17
2019-04-30T09:41:49.882Z,102043.33
2019-04-30T09:44:19.518Z,102047.10
2019-04-30T09:46:48.987Z,102048.91
2019-04-30T09:49:19.446Z,102046.28
2019-04-30T09:51:49.828Z,102048.62
2019-04-30T09:54:20.255Z,102042.02
2019-04-30T09:56:52.617Z,102034.69
2019-04-30T09:59:20.715Z,102035.84
2019-04-30T10:01:51.706Z,102028.20
2019-04-30T10:04:21.658Z,102022.20
2019-04-30T10:06:51.408Z,102025.17
2019-04-30T10:09:20.789Z,102013.95
2019-04-30T10:12:21.143Z,102020.59
2019-04-30T10:14:50.503Z,102016.50
2019-04-30T10:17:54.069Z,102012.95
2019-04-30T10:20:29.664Z,102017.53
2019-04-30T10:22:59.639Z,102017.04
2019-04-30T10:25:28.800Z,102017.59
2019-04-30T10:27:59.789Z,102011.34
2019-04-30T10:30:34.686Z,102008.14
2019-04-30T10:33:03.936Z,102010.87
2019-04-30T10:35:33.159Z,102000.38
2019-04-30T10:38:02.574Z,102007.47
2019-04-30T10:40:31.834Z,102007.70
2019-04-30T10:43:00.995Z,102006.48
2019-04-30T10:45:30.343Z,102006.91
2019-04-30T10:47:59.626Z,102002.31
2019-04-30T10:50:28.800Z,101997.00
2019-04-30T10:52:59.116Z,101990.23
2019-04-30T10:55:28.678Z,101991.12
2019-04-30T10:57:59.444Z,101993.03
2019-04-30T11:00:38.926Z,102005.88
2019-04-30T11:03:19.260Z,101994.12
2019-04-30T11:05:41.278Z,101995.12
2019-04-30T11:08:10.607Z,101994.13
2019-04-30T11:10:40.081Z,101994.78
2019-04-30T11:13:09.284Z,101991.47
2019-04-30T11:15:40.084Z,101990.38
2019-04-30T11:18:09.587Z,101987.54
2019-04-30T11:20:39.736Z,101984.34
2019-04-30T11:23:14.495Z,101982.28
2019-04-30T11:25:41.521Z,101976.80
2019-04-30T11:28:11.785Z,101968.94
2019-04-30T11:30:41.367Z,101971.30
2019-04-30T11:33:11.259Z,101976.45
2019-04-30T11:35:40.534Z,101975.43
2019-04-30T11:38:09.722Z,101978.98
2019-04-30T11:40:39.931Z,101978.45
2019-04-30T11:43:09.648Z,101980.02
2019-04-30T11:46:08.977Z,101970.61
2019-04-30T11:48:38.746Z,101967.05
2019-04-30T11:51:09.457Z,101967.07
2019-04-30T11:53:39.070Z,101960.11
2019-04-30T11:56:08.373Z,101956.27
2019-04-30T11:58:38.884Z,101958.53
2019-04-30T12:01:10.069Z,101948.64
2019-04-30T12:03:39.449Z,101939.98
2019-04-30T12:06:10.156Z,101941.30
2019-04-30T12:08:56.262Z,101936.56
2019-04-30T12:11:31.024Z,101938.63
2019-04-30T12:14:00.231Z,101940.55
2019-04-30T12:16:29.418Z,101936.57
2019-04-30T12:19:00.654Z,101926.49
2019-04-30T12:21:29.690Z,101921.69
2019-04-30T12:23:58.915Z,101918.77
2019-04-30T12:26:28.886Z,101920.47
2019-04-30T12:28:58.178Z,101913.48
2019-04-30T12:31:27.373Z,101930.11
2019-04-30T12:33:56.542Z,101923.84
2019-04-30T12:36:25.722Z,101925.53
2019-04-30T12:38:54.912Z,101923.84
2019-04-30T12:41:24.124Z,101917.81
2019-04-30T12:43:53.599Z,101935.54
2019-04-30T12:46:22.747Z,101923.88
2019-04-30T12:48:57.140Z,101926.70
2019-04-30T12:51:48.805Z,101920.30
2019-04-30T12:54:33.448Z,101910.39
2019-04-30T12:57:24.775Z,101906.72
2019-04-30T12:59:53.938Z,101901.53
2019-04-30T13:02:23.177Z,101900.12
2019-04-30T13:04:52.379Z,101893.14
2019-04-30T13:07:23.305Z,101901.08
2019-04-30T13:09:53.448Z,101890.78
2019-04-30T13:12:23.666Z,101887.45
2019-04-30T13:14:54.820Z,101876.26
2019-04-30T13:17:24.248Z,101885.28
2019-04-30T13:19:53.439Z,101888.63
2019-04-30T13:22:22.797Z,101877.74
2019-04-30T13:24:52.460Z,101885.22
2019-04-30T13:27:22.547Z,101885.57
2019-04-30T13:30:02.498Z,101880.43
2019-04-30T13:32:36.022Z,101871.13
2019-04-30T13:35:05.710Z,101870.39
2019-04-30T13:37:44.143Z,101864.72
2019-04-30T13:40:32.020Z,101864.00
2019-04-30T13:43:02.114Z,101867.98
2019-04-30T13:45:31.330Z,101855.25
2019-04-30T13:48:00.606Z,101855.18
2019-04-30T13:50:31.311Z,101848.75
2019-04-30T13:53:00.502Z,101846.09
2019-04-30T13:55:42.700Z,101845.27
2019-04-30T13:58:02.221Z,101847.91
2019-04-30T14:00:31.522Z,101846.70
2019-04-30T14:03:10.775Z,101841.93
2019-04-30T14:05:39.959Z,101838.53
2019-04-30T14:08:17.763Z,101830.22
2019-04-30T14:10:49.226Z,101833.39
2019-04-30T14:13:18.161Z,101828.66
2019-04-30T14:15:48.165Z,101825.61
2019-04-30T14:18:27.945Z,101823.45
2019-04-30T14:20:48.431Z,101826.13
2019-04-30T14:23:19.582Z,101819.81
2019-04-30T14:25:56.441Z,101816.39
2019-04-30T14:28:19.845Z,101814.78
2019-04-30T14:30:49.150Z,101812.34
2019-04-30T14:33:25.914Z,101814.15
2019-04-30T14:35:49.818Z,101807.77
2019-04-30T14:38:19.130Z,101811.31
2019-04-30T14:40:50.642Z,101808.14
2019-04-30T14:43:30.028Z,101807.36
2019-04-30T14:46:24.696Z,101812.20
2019-04-30T14:48:59.965Z,101805.91
2019-04-30T14:51:28.031Z,101796.35
2019-04-30T14:54:22.280Z,101788.95
2019-04-30T15:00:06.057Z,101790.09
2019-04-30T15:02:42.262Z,101789.05
2019-04-30T15:05:11.762Z,101792.16
2019-04-30T15:07:40.976Z,101791.86
2019-04-30T15:10:10.179Z,101784.66
2019-04-30T15:12:39.378Z,101779.47
2019-04-30T15:15:09.231Z,101779.31
2019-04-30T15:17:39.278Z,101773.81
2019-04-30T15:20:10.105Z,101773.37
2019-04-30T15:22:41.586Z,101766.47
2019-04-30T15:25:12.272Z,101774.25
2019-04-30T15:27:45.281Z,101772.31
2019-04-30T15:30:13.323Z,101773.76
2019-04-30T15:32:44.291Z,101771.15
2019-04-30T15:35:13.530Z,101775.06
2019-04-30T15:37:44.399Z,101770.77
2019-04-30T15:40:13.670Z,101774.50
2019-04-30T15:42:44.637Z,101765.11
2019-04-30T15:45:15.894Z,101774.11
2019-04-30T15:47:45.092Z,101768.48
2019-04-30T15:50:14.587Z,101762.07
2019-04-30T15:52:43.754Z,101761.66
2019-04-30T15:55:13.060Z,101757.98
2019-04-30T15:57:59.303Z,101758.39
2019-04-30T16:00:31.348Z,101759.46
2019-04-30T16:03:09.547Z,101745.85
2019-04-30T16:05:41.637Z,101749.02
2019-04-30T16:08:33.610Z,101750.73
2019-04-30T16:11:20.331Z,101748.50
2019-04-30T16:14:20.891Z,101742.83
2019-04-30T16:17:09.170Z,101748.16
2019-04-30T16:19:38.588Z,101743.05
2019-04-30T16:22:07.914Z,101740.67
2019-04-30T16:24:38.696Z,101739.98
2019-04-30T16:27:09.270Z,101746.16
2019-04-30T16:29:40.672Z,101739.65
2019-04-30T16:32:09.489Z,101735.03
2019-04-30T16:34:38.998Z,101727.94
2019-04-30T16:37:08.243Z,101728.98
2019-04-30T16:39:37.396Z,101731.14
2019-04-30T16:42:06.632Z,101727.91
2019-04-30T16:44:35.801Z,101725.51
2019-04-30T16:47:13.444Z,101722.13
2019-04-30T16:49:35.871Z,101722.34
2019-04-30T16:52:05.058Z,101724.51
2019-04-30T16:54:34.277Z,101727.67
2019-04-30T16:57:06.737Z,101724.45
2019-04-30T16:59:39.217Z,101727.02
2019-04-30T17:02:09.321Z,101722.52
2019-04-30T17:04:55.581Z,101718.14
2019-04-30T17:07:38.763Z,101714.95
2019-04-30T17:10:18.853Z,101718.17
2019-04-30T17:13:01.007Z,101716.68
2019-04-30T17:15:31.329Z,101722.84
2019-04-30T17:18:00.500Z,101716.73
2019-04-30T17:20:29.715Z,101715.05
2019-04-30T17:22:59.594Z,101711.13
2019-04-30T17:25:28.830Z,101714.11
2019-04-30T17:28:01.084Z,101718.67
2019-04-30T17:30:29.419Z,101714.48
2019-04-30T17:32:59.726Z,101717.51
2019-04-30T17:35:29.041Z,101722.28
2019-04-30T17:37:58.352Z,101718.64
2019-04-30T17:40:29.157Z,101720.31
2019-04-30T17:42:58.386Z,101722.67
2019-04-30T17:45:29.210Z,101720.45
2019-04-30T17:47:58.610Z,101724.97
2019-04-30T17:50:29.603Z,101723.34
2019-04-30T17:53:00.739Z,101731.02
2019-04-30T17:55:30.176Z,101735.87
2019-04-30T17:57:59.356Z,101732.20
2019-04-30T18:00:30.430Z,101732.83
2019-04-30T18:02:59.646Z,101749.95
2019-04-30T18:05:29.288Z,101738.17
2019-04-30T18:07:58.797Z,101735.58
2019-04-30T18:10:28.463Z,101737.73
2019-04-30T18:12:57.639Z,101747.09
2019-04-30T18:15:28.854Z,101741.86
2019-04-30T18:18:07.140Z,101744.33
2019-04-30T18:20:41.596Z,101744.74
2019-04-30T18:23:40.077Z,101743.65
2019-04-30T18:26:13.901Z,101741.86
2019-04-30T18:28:44.653Z,101747.20
2019-04-30T18:31:13.817Z,101742.82
2019-04-30T18:33:42.997Z,101745.47
2019-04-30T18:36:12.193Z,101741.72
2019-04-30T18:38:41.350Z,101740.50
2019-04-30T18:41:10.567Z,101740.62
2019-04-30T18:43:40.550Z,101746.91
2019-04-30T18:46:10.852Z,101747.38
2019-04-30T18:48:40.135Z,101748.69
2019-04-30T18:51:23.934Z,101752.33
2019-04-30T18:53:40.367Z,101751.60
2019-04-30T18:56:14.418Z,101753.17
2019-04-30T18:58:43.040Z,101756.93
2019-04-30T19:01:11.758Z,101757.19
2019-04-30T19:03:40.989Z,101760.80
2019-04-30T19:06:22.899Z,101758.09
2019-04-30T19:08:52.934Z,101761.03
2019-04-30T19:11:33.415Z,101767.88
2019-04-30T19:14:24.779Z,101766.02
2019-04-30T19:17:29.544Z,101766.48
2019-04-30T19:20:21.916Z,101768.77
2019-04-30T19:22:52.595Z,101771.70
2019-04-30T19:25:22.067Z,101771.98
2019-04-30T19:27:51.442Z,101776.92
2019-04-30T19:30:22.290Z,101780.09
2019-04-30T19:32:52.018Z,101789.52
2019-04-30T19:35:22.371Z,101787.20
2019-04-30T19:37:51.895Z,101790.25
2019-04-30T19:40:21.354Z,101787.07
2019-04-30T19:42:50.996Z,101784.53
2019-04-30T19:45:20.290Z,101785.33
2019-04-30T19:47:52.096Z,101791.17
2019-04-30T19:50:21.408Z,101798.80
2019-04-30T19:52:51.535Z,101796.20
2019-04-30T19:55:20.787Z,101793.88
2019-04-30T19:57:54.634Z,101800.25
2019-04-30T20:00:23.906Z,101789.41
2019-04-30T20:02:53.138Z,101803.06
2019-04-30T20:05:23.290Z,101790.80
2019-04-30T20:07:52.540Z,101795.15
2019-04-30T20:10:22.258Z,101793.31
2019-04-30T20:12:52.545Z,101795.02
2019-04-30T20:15:24.592Z,101801.30
2019-04-30T20:17:53.653Z,101798.42
2019-04-30T20:20:23.328Z,101801.04
2019-04-30T20:22:53.665Z,101798.88
2019-04-30T20:25:24.362Z,101798.71
2019-04-30T20:27:53.625Z,101800.14
2019-04-30T20:30:22.959Z,101796.36
2019-04-30T20:32:52.453Z,101789.97
2019-04-30T20:35:23.016Z,101782.56
2019-04-30T20:38:31.205Z,101787.59
2019-04-30T20:41:03.091Z,101780.87
2019-04-30T20:43:31.550Z,101779.09
2019-04-30T20:46:01.078Z,101777.62
2019-04-30T20:48:30.332Z,101772.37
2019-04-30T20:51:01.310Z,101767.44
2019-04-30T20:53:30.523Z,101770.49
2019-04-30T20:55:59.738Z,101765.34
2019-04-30T20:58:30.026Z,101767.70
2019-04-30T21:01:03.928Z,101766.34
2019-04-30T21:03:29.640Z,101767.06
2019-04-30T21:06:00.376Z,101767.45
2019-04-30T21:08:28.142Z,101765.03
2019-04-30T21:10:56.406Z,101765.17
2019-04-30T21:13:24.702Z,101761.31
2019-04-30T21:15:54.991Z,101760.14
2019-04-30T21:18:22.823Z,101764.51
2019-04-30T21:20:51.098Z,101760.80
2019-04-30T21:23:19.581Z,101764.38
2019-04-30T21:25:48.783Z,101756.03
2019-04-30T21:28:17.149Z,101753.30
2019-04-30T21:30:46.477Z,101747.34
2019-04-30T21:33:31.971Z,101744.91
2019-04-30T21:36:14.594Z,101740.40
2019-04-30T21:38:43.939Z,101737.31
2019-04-30T21:41:13.101Z,101744.70
2019-04-30T21:43:42.443Z,101737.84
2019-04-30T21:46:11.701Z,101736.80
2019-04-30T21:48:40.912Z,101739.19
2019-04-30T21:51:10.085Z,101738.36
2019-04-30T21:53:39.732Z,101740.20
2019-04-30T21:56:10.013Z,101738.83
2019-04-30T21:58:39.420Z,101733.28
2019-04-30T22:01:21.536Z,101735.15
2019-04-30T22:03:50.773Z,101733.45
2019-04-30T22:06:20.027Z,101729.34
2019-04-30T22:08:49.279Z,101726.55
2019-04-30T22:11:19.775Z,101726.88
2019-04-30T22:13:49.446Z,101724.07
2019-04-30T22:16:20.447Z,101720.20
2019-04-30T22:18:49.807Z,101717.68
2019-04-30T22:21:19.033Z,101723.75
2019-04-30T22:23:48.275Z,101719.36
2019-04-30T22:26:17.631Z,101728.30
2019-04-30T22:28:46.898Z,101726.53
2019-04-30T22:31:16.362Z,101731.56
2019-04-30T22:33:45.618Z,101722.59
2019-04-30T22:36:34.529Z,101719.98
2019-04-30T22:39:14.789Z,101720.30
2019-04-30T22:41:43.992Z,101721.38
2019-04-30T22:44:13.299Z,101708.40
2019-04-30T22:46:42.572Z,101711.22
2019-04-30T22:49:11.829Z,101712.16
2019-04-30T22:51:41.061Z,101709.50
2019-04-30T22:54:10.284Z,101713.22
2019-04-30T22:56:39.508Z,101713.73
2019-04-30T22:59:08.717Z,101705.52
2019-04-30T23:01:53.331Z,101706.42
2019-04-30T23:04:30.879Z,101703.48
2019-04-30T23:07:00.450Z,101702.83
2019-04-30T23:09:29.673Z,101700.74
2019-04-30T23:11:58.890Z,101702.78
2019-04-30T23:14:28.273Z,101691.25
2019-04-30T23:16:57.700Z,101692.48
2019-04-30T23:19:26.939Z,101687.79
2019-04-30T23:21:56.442Z,101698.41
2019-04-30T23:24:25.795Z,101690.61
2019-04-30T23:26:55.065Z,101691.44
2019-04-30T23:29:24.475Z,101688.85
2019-04-30T23:31:53.703Z,101691.23
2019-04-30T23:34:22.959Z,101685.96
2019-04-30T23:36:52.152Z,101683.25
2019-04-30T23:39:21.409Z,101678.22
2019-04-30T23:41:50.664Z,101677.63
2019-04-30T23:44:19.898Z,101675.80
2019-04-30T23:46:49.189Z,101671.48
2019-04-30T23:49:18.433Z,101663.31
2019-04-30T23:51:50.427Z,101663.23
2019-04-30T23:54:20.293Z,101658.11
2019-04-30T23:56:49.634Z,101661.63
2019-04-30T23:59:18.982Z,101658.02
